createdAt,value
2023-02-16T00:01:51.003Z,102306.28
2023-02-16T00:04:21.811Z,102306.53
2023-02-16T00:06:49.609Z,102306.53
2023-02-16T00:09:18.682Z,102305.00
2023-02-16T00:12:05.045Z,102309.34
2023-02-16T00:14:35.006Z,102308.63
2023-02-16T00:17:02.466Z,102316.81
2023-02-16T00:19:33.839Z,102319.59
2023-02-16T00:22:01.503Z,102312.63
2023-02-16T00:24:31.182Z,102313.59
2023-02-16T00:26:58.942Z,102312.88
2023-02-16T00:29:27.814Z,102313.84
2023-02-16T00:31:57.504Z,102307.03
2023-02-16T00:34:31.731Z,102305.34
2023-02-16T00:36:59.928Z,102305.47
2023-02-16T00:39:27.247Z,102315.31
2023-02-16T00:41:56.068Z,102302.22
2023-02-16T00:44:31.011Z,102302.38
2023-02-16T00:47:01.176Z,102306.81
2023-02-16T00:49:27.905Z,102306.94
2023-02-16T00:51:55.943Z,102293.84
2023-02-16T00:54:22.836Z,102300.09
2023-02-16T00:56:49.625Z,102306.34
2023-02-16T00:59:20.670Z,102301.31
2023-02-16T01:01:49.076Z,102307.56
2023-02-16T01:04:22.443Z,102300.59
2023-02-16T01:07:08.536Z,102296.53
2023-02-16T01:09:53.574Z,102297.63
2023-02-16T01:12:22.441Z,102293.31
2023-02-16T01:14:53.504Z,102285.50
2023-02-16T01:17:20.350Z,102291.88
2023-02-16T01:19:48.437Z,102290.22
2023-02-16T01:22:15.841Z,102293.81
2023-02-16T01:24:44.045Z,102293.81
2023-02-16T01:27:12.565Z,102287.81
2023-02-16T01:29:39.464Z,102290.44
2023-02-16T01:32:06.541Z,102284.47
2023-02-16T01:34:33.357Z,102286.41
2023-02-16T01:37:01.562Z,102279.53
2023-02-16T01:39:28.308Z,102280.50
2023-02-16T01:42:09.610Z,102283.16
2023-02-16T01:44:41.288Z,102283.41
2023-02-16T01:47:16.535Z,102273.09
2023-02-16T01:49:43.271Z,102271.56
2023-02-16T01:52:20.980Z,102271.78
2023-02-16T01:54:53.503Z,102264.81
2023-02-16T01:57:30.257Z,102255.34
2023-02-16T02:00:05.904Z,102250.91
2023-02-16T02:02:36.139Z,102244.06
2023-02-16T02:05:27.041Z,102259.09
2023-02-16T02:08:01.147Z,102266.56
2023-02-16T02:10:34.880Z,102262.22
2023-02-16T02:13:07.445Z,102262.47
2023-02-16T02:15:35.098Z,102258.16
2023-02-16T02:18:02.506Z,102245.19
2023-02-16T02:21:00.288Z,102249.88
2023-02-16T02:23:45.235Z,102246.91
2023-02-16T02:26:59.899Z,102246.44
2023-02-16T02:29:49.829Z,102245.97
2023-02-16T02:32:23.125Z,102244.41
2023-02-16T02:35:01.500Z,102244.66
2023-02-16T02:37:39.627Z,102250.09
2023-02-16T02:40:14.997Z,102237.97
2023-02-16T02:42:51.652Z,102244.06
2023-02-16T02:45:26.932Z,102236.28
2023-02-16T02:47:53.884Z,102231.94
2023-02-16T02:50:39.301Z,102238.06
2023-02-16T02:53:10.852Z,102226.81
2023-02-16T02:56:01.717Z,102227.88
2023-02-16T02:58:51.653Z,102230.66
2023-02-16T03:01:20.568Z,102219.34
2023-02-16T03:03:51.137Z,102223.00
2023-02-16T03:06:22.268Z,102223.94
2023-02-16T03:08:54.777Z,102214.34
2023-02-16T03:11:42.773Z,102211.69
2023-02-16T03:14:15.948Z,102211.81
2023-02-16T03:16:48.310Z,102208.34
2023-02-16T03:19:36.588Z,102212.66
2023-02-16T03:22:23.218Z,102216.97
2023-02-16T03:25:08.836Z,102210.97
2023-02-16T03:27:59.488Z,102214.56
2023-02-16T03:30:28.004Z,102207.59
2023-02-16T03:32:56.490Z,102206.78
2023-02-16T03:35:23.667Z,102208.59
2023-02-16T03:37:50.464Z,102205.81
2023-02-16T03:40:29.951Z,102198.03
2023-02-16T03:42:58.659Z,102211.25
2023-02-16T03:45:25.531Z,102202.59
2023-02-16T03:47:52.424Z,102195.63
2023-02-16T03:50:20.623Z,102200.06
2023-02-16T03:52:47.655Z,102200.19
2023-02-16T03:55:15.486Z,102203.94
2023-02-16T03:57:42.345Z,102193.47
2023-02-16T04:00:10.097Z,102198.75
2023-02-16T04:02:36.891Z,102196.34
2023-02-16T04:05:03.722Z,102210.66
2023-02-16T04:07:31.989Z,102205.63
2023-02-16T04:09:58.668Z,102204.03
2023-02-16T04:12:37.218Z,102202.41
2023-02-16T04:15:06.500Z,102208.63
2023-02-16T04:17:33.180Z,102212.47
2023-02-16T04:19:59.970Z,102216.31
2023-02-16T04:22:26.790Z,102214.88
2023-02-16T04:24:54.988Z,102220.28
2023-02-16T04:27:21.805Z,102221.25
2023-02-16T04:29:48.620Z,102224.84
2023-02-16T04:32:15.437Z,102224.09
2023-02-16T04:34:42.244Z,102226.88
2023-02-16T04:37:09.005Z,102219.94
2023-02-16T04:39:35.783Z,102219.94
2023-02-16T04:42:04.276Z,102231.31
2023-02-16T04:44:31.012Z,102219.78
2023-02-16T04:46:57.839Z,102217.03
2023-02-16T04:49:24.503Z,102215.97
2023-02-16T04:51:51.487Z,102209.72
2023-02-16T04:54:18.451Z,102208.63
2023-02-16T04:56:45.953Z,102222.66
2023-02-16T04:59:15.384Z,102200.47
2023-02-16T05:01:42.957Z,102205.50
2023-02-16T05:04:10.159Z,102204.53
2023-02-16T05:06:37.532Z,102206.94
2023-02-16T05:09:05.224Z,102212.97
2023-02-16T05:11:50.888Z,102207.53
2023-02-16T05:14:41.039Z,102198.66
2023-02-16T05:17:08.564Z,102204.53
2023-02-16T05:19:35.262Z,102194.69
2023-02-16T05:22:02.374Z,102205.97
2023-02-16T05:24:29.093Z,102209.31
2023-02-16T05:26:55.862Z,102212.69
2023-02-16T05:29:24.148Z,102210.75
2023-02-16T05:31:51.164Z,102207.16
2023-02-16T05:34:18.292Z,102194.78
2023-02-16T05:36:45.066Z,102201.75
2023-02-16T05:39:11.859Z,102195.50
2023-02-16T05:41:38.707Z,102198.03
2023-02-16T05:44:07.578Z,102202.31
2023-02-16T05:46:37.710Z,102195.25
2023-02-16T05:49:05.403Z,102199.56
2023-02-16T05:51:32.591Z,102186.38
2023-02-16T05:53:59.822Z,102186.25
2023-02-16T05:56:28.292Z,102189.72
2023-02-16T05:58:55.491Z,102184.44
2023-02-16T06:01:22.459Z,102186.13
2023-02-16T06:03:51.612Z,102184.31
2023-02-16T06:06:18.656Z,102189.47
2023-02-16T06:08:46.231Z,102192.94
2023-02-16T06:11:31.660Z,102180.56
2023-02-16T06:13:59.467Z,102177.81
2023-02-16T06:16:28.867Z,102179.63
2023-02-16T06:18:57.787Z,102183.94
2023-02-16T06:21:25.374Z,102188.25
2023-02-16T06:23:52.258Z,102172.41
2023-02-16T06:26:20.523Z,102173.13
2023-02-16T06:28:47.924Z,102178.28
2023-02-16T06:31:14.828Z,102187.03
2023-02-16T06:33:43.305Z,102198.44
2023-02-16T06:36:11.934Z,102199.28
2023-02-16T06:38:38.721Z,102206.25
2023-02-16T06:41:06.124Z,102196.53
2023-02-16T06:43:33.224Z,102187.66
2023-02-16T06:46:00.067Z,102199.91
2023-02-16T06:48:26.847Z,102192.81
2023-02-16T06:50:53.800Z,102187.38
2023-02-16T06:53:21.910Z,102199.63
2023-02-16T06:55:51.539Z,102206.59
2023-02-16T06:58:18.317Z,102198.66
2023-02-16T07:00:45.497Z,102207.31
2023-02-16T07:03:12.300Z,102205.41
2023-02-16T07:05:39.200Z,102204.41
2023-02-16T07:08:05.962Z,102210.28
2023-02-16T07:10:48.695Z,102207.53
2023-02-16T07:13:16.704Z,102202.38
2023-02-16T07:15:43.441Z,102202.09
2023-02-16T07:18:10.213Z,102197.53
2023-02-16T07:20:38.011Z,102203.41
2023-02-16T07:23:05.041Z,102205.91
2023-02-16T07:25:31.756Z,102197.88
2023-02-16T07:27:59.988Z,102197.63
2023-02-16T07:30:26.707Z,102204.44
2023-02-16T07:32:53.532Z,102204.44
2023-02-16T07:35:20.336Z,102198.19
2023-02-16T07:37:47.195Z,102199.03
2023-02-16T07:40:13.998Z,102202.16
2023-02-16T07:42:40.772Z,102203.97
2023-02-16T07:45:09.894Z,102209.09
2023-02-16T07:47:36.730Z,102199.25
2023-02-16T07:50:03.592Z,102208.00
2023-02-16T07:52:31.384Z,102207.88
2023-02-16T07:54:59.018Z,102206.09
2023-02-16T07:57:26.151Z,102208.63
2023-02-16T07:59:53.260Z,102222.53
2023-02-16T08:02:23.284Z,102219.75
2023-02-16T08:04:52.904Z,102223.25
2023-02-16T08:07:19.936Z,102222.16
2023-02-16T08:09:46.707Z,102224.66
2023-02-16T08:12:16.122Z,102231.63
2023-02-16T08:14:43.171Z,102224.28
2023-02-16T08:17:10.344Z,102237.22
2023-02-16T08:19:38.607Z,102237.94
2023-02-16T08:22:08.296Z,102238.56
2023-02-16T08:24:35.917Z,102244.53
2023-02-16T08:27:04.359Z,102247.78
2023-02-16T08:29:31.690Z,102250.28
2023-02-16T08:31:58.797Z,102244.72
2023-02-16T08:34:26.635Z,102245.44
2023-02-16T08:36:56.866Z,102246.16
2023-02-16T08:39:26.700Z,102251.19
2023-02-16T08:41:54.668Z,102251.06
2023-02-16T08:44:24.163Z,102246.47
2023-02-16T08:46:52.843Z,102234.09
2023-02-16T08:49:22.070Z,102229.50
2023-02-16T08:51:52.888Z,102234.53
2023-02-16T08:54:23.133Z,102245.84
2023-02-16T08:56:50.802Z,102240.28
2023-02-16T08:59:19.480Z,102238.47
2023-02-16T09:01:46.745Z,102242.50
2023-02-16T09:04:16.314Z,102237.09
2023-02-16T09:06:45.279Z,102242.28
2023-02-16T09:09:13.252Z,102249.97
2023-02-16T09:11:41.664Z,102248.84
2023-02-16T09:14:09.367Z,102246.91
2023-02-16T09:16:39.527Z,102250.28
2023-02-16T09:19:06.727Z,102250.13
2023-02-16T09:21:33.839Z,102266.72
2023-02-16T09:24:02.302Z,102264.78
2023-02-16T09:26:32.819Z,102274.28
2023-02-16T09:29:02.056Z,102271.47
2023-02-16T09:31:31.064Z,102266.91
2023-02-16T09:34:01.320Z,102268.47
2023-02-16T09:36:28.781Z,102264.00
2023-02-16T09:38:56.403Z,102265.69
2023-02-16T09:41:36.645Z,102273.34
2023-02-16T09:44:17.843Z,102261.78
2023-02-16T09:46:46.061Z,102263.34
2023-02-16T09:49:24.820Z,102265.00
2023-02-16T09:52:00.873Z,102264.03
2023-02-16T09:54:36.517Z,102260.41
2023-02-16T09:57:08.708Z,102257.63
2023-02-16T09:59:47.353Z,102248.72
2023-02-16T10:02:34.644Z,102256.38
2023-02-16T10:05:17.394Z,102260.59
2023-02-16T10:07:54.769Z,102256.97
2023-02-16T10:10:24.262Z,102250.72
2023-02-16T10:12:56.996Z,102256.56
2023-02-16T10:15:28.615Z,102246.81
2023-02-16T10:17:58.499Z,102250.19
2023-02-16T10:20:29.002Z,102249.88
2023-02-16T10:23:02.699Z,102244.47
2023-02-16T10:25:39.463Z,102247.00
2023-02-16T10:28:16.042Z,102244.09
2023-02-16T10:30:49.097Z,102249.09
2023-02-16T10:33:22.419Z,102248.97
2023-02-16T10:35:52.435Z,102249.69
2023-02-16T10:38:25.485Z,102248.59
2023-02-16T10:40:59.293Z,102259.06
2023-02-16T10:43:40.361Z,102260.59
2023-02-16T10:46:10.819Z,102262.28
2023-02-16T10:48:38.155Z,102261.44
2023-02-16T10:51:09.392Z,102256.81
2023-02-16T10:53:41.985Z,102252.38
2023-02-16T10:56:38.303Z,102259.34
2023-02-16T10:59:07.724Z,102263.69
2023-02-16T11:01:38.742Z,102261.88
2023-02-16T11:04:05.969Z,102252.09
2023-02-16T11:06:36.434Z,102247.78
2023-02-16T11:09:04.563Z,102247.78
2023-02-16T11:11:36.995Z,102258.38
2023-02-16T11:14:08.973Z,102248.75
2023-02-16T11:16:37.321Z,102250.44
2023-02-16T11:19:07.866Z,102241.63
2023-02-16T11:21:47.454Z,102242.47
2023-02-16T11:24:25.318Z,102252.09
2023-02-16T11:26:59.703Z,102253.91
2023-02-16T11:29:26.773Z,102261.03
2023-02-16T11:31:56.434Z,102259.22
2023-02-16T11:34:30.351Z,102258.38
2023-02-16T11:37:05.142Z,102263.69
2023-02-16T11:39:37.328Z,102259.94
2023-02-16T11:42:08.944Z,102251.97
2023-02-16T11:44:37.968Z,102251.13
2023-02-16T11:47:08.945Z,102241.38
2023-02-16T11:49:38.377Z,102234.28
2023-02-16T11:52:27.155Z,102235.13
2023-02-16T11:54:55.974Z,102247.53
2023-02-16T11:57:25.202Z,102236.75
2023-02-16T11:59:52.237Z,102232.19
2023-02-16T12:02:45.242Z,102221.44
2023-02-16T12:05:26.867Z,102215.16
2023-02-16T12:08:10.285Z,102210.72
2023-02-16T12:10:45.531Z,102214.75
2023-02-16T12:13:22.303Z,102211.00
2023-02-16T12:15:59.622Z,102204.56
2023-02-16T12:18:41.515Z,102205.16
2023-02-16T12:21:21.267Z,102202.19
2023-02-16T12:24:01.203Z,102194.81
2023-02-16T12:26:43.037Z,102200.00
2023-02-16T12:29:23.133Z,102190.91
2023-02-16T12:32:04.747Z,102187.84
2023-02-16T12:34:42.818Z,102182.13
2023-02-16T12:37:22.515Z,102172.09
2023-02-16T12:39:59.212Z,102170.81
2023-02-16T12:42:48.441Z,102168.88
2023-02-16T12:45:19.940Z,102163.25
2023-02-16T12:47:52.392Z,102150.72
2023-02-16T12:50:24.287Z,102151.13
2023-02-16T12:52:54.268Z,102148.19
2023-02-16T12:55:26.398Z,102136.47
2023-02-16T12:58:02.124Z,102133.50
2023-02-16T13:00:41.187Z,102118.00
2023-02-16T13:03:23.444Z,102122.75
2023-02-16T13:06:02.489Z,102122.31
2023-02-16T13:08:39.155Z,102114.88
2023-02-16T13:11:16.521Z,102112.66
2023-02-16T13:13:47.236Z,102113.19
2023-02-16T13:16:29.559Z,102102.28
2023-02-16T13:18:57.219Z,102093.03
2023-02-16T13:21:51.240Z,102089.13
2023-02-16T13:24:32.780Z,102083.38
2023-02-16T13:27:19.913Z,102083.75
2023-02-16T13:30:01.314Z,102091.28
2023-02-16T13:32:50.125Z,102088.19
2023-02-16T13:35:30.097Z,102090.56
2023-02-16T13:38:25.891Z,102082.97
2023-02-16T13:41:17.344Z,102077.34
2023-02-16T13:43:50.481Z,102071.06
2023-02-16T13:46:26.878Z,102074.28
2023-02-16T13:48:54.127Z,102075.78
2023-02-16T13:51:23.512Z,102072.97
2023-02-16T13:53:56.268Z,102069.88
2023-02-16T13:56:35.291Z,102065.38
2023-02-16T13:59:35.983Z,102066.75
2023-02-16T14:02:04.121Z,102061.13
2023-02-16T14:05:04.117Z,102054.56
2023-02-16T14:07:38.051Z,102032.97
2023-02-16T14:10:12.883Z,102032.69
2023-02-16T14:12:41.248Z,102036.69
2023-02-16T14:15:18.484Z,102024.97
2023-02-16T14:17:45.985Z,102019.38
2023-02-16T14:20:29.077Z,102027.00
2023-02-16T14:22:57.529Z,102021.41
2023-02-16T14:25:41.290Z,102022.91
2023-02-16T14:28:28.888Z,102029.75
2023-02-16T14:30:58.828Z,102028.91
2023-02-16T14:33:39.535Z,102015.47
2023-02-16T14:36:14.292Z,102021.47
2023-02-16T14:38:45.968Z,102014.16
2023-02-16T14:41:25.947Z,102011.38
2023-02-16T14:43:56.166Z,102009.41
2023-02-16T14:46:47.350Z,101999.44
2023-02-16T14:49:52.083Z,102000.94
2023-02-16T14:52:56.651Z,101998.97
2023-02-16T14:56:02.176Z,101990.84
2023-02-16T14:58:44.970Z,101992.34
2023-02-16T15:01:14.465Z,102000.84
2023-02-16T15:03:48.297Z,101995.25
2023-02-16T15:06:29.633Z,101993.38
2023-02-16T15:08:59.186Z,101997.56
2023-02-16T15:11:34.789Z,102000.75
2023-02-16T15:14:06.105Z,101994.28
2023-02-16T15:16:33.714Z,101987.97
2023-02-16T15:19:08.325Z,101991.31
2023-02-16T15:21:35.280Z,101985.66
2023-02-16T15:24:03.236Z,101981.03
2023-02-16T15:26:33.667Z,101971.94
2023-02-16T15:29:13.455Z,101972.56
2023-02-16T15:31:40.642Z,101974.94
2023-02-16T15:34:13.581Z,101973.09
2023-02-16T15:36:42.747Z,101974.63
2023-02-16T15:39:15.767Z,101976.97
2023-02-16T15:41:48.359Z,101977.63
2023-02-16T15:44:32.653Z,101975.66
2023-02-16T15:47:08.132Z,101973.66
2023-02-16T15:49:38.999Z,101977.16
2023-02-16T15:52:10.004Z,101970.84
2023-02-16T15:54:39.327Z,101969.84
2023-02-16T15:57:16.758Z,101969.84
2023-02-16T15:59:48.964Z,101973.19
2023-02-16T16:02:18.691Z,101964.22
2023-02-16T16:04:48.798Z,101963.22
2023-02-16T16:07:19.822Z,101964.88
2023-02-16T16:09:47.682Z,101961.22
2023-02-16T16:12:17.517Z,101969.06
2023-02-16T16:14:51.654Z,101969.75
2023-02-16T16:17:23.618Z,101961.56
2023-02-16T16:19:52.111Z,101957.09
2023-02-16T16:22:34.449Z,101963.25
2023-02-16T16:25:03.231Z,101959.59
2023-02-16T16:27:33.207Z,101956.09
2023-02-16T16:30:29.554Z,101959.59
2023-02-16T16:33:02.508Z,101955.13
2023-02-16T16:35:39.197Z,101952.59
2023-02-16T16:38:21.449Z,101952.59
2023-02-16T16:40:53.032Z,101956.25
2023-02-16T16:43:22.945Z,101957.09
2023-02-16T16:45:57.894Z,101962.59
2023-02-16T16:48:29.261Z,101951.28
2023-02-16T16:51:10.108Z,101954.09
2023-02-16T16:53:50.803Z,101959.72
2023-02-16T16:56:20.203Z,101956.41
2023-02-16T16:58:50.115Z,101958.22
2023-02-16T17:01:20.204Z,101953.91
2023-02-16T17:03:47.502Z,101953.91
2023-02-16T17:06:14.760Z,101949.91
2023-02-16T17:08:42.054Z,101957.19
2023-02-16T17:11:13.782Z,101956.50
2023-02-16T17:13:40.699Z,101957.66
2023-02-16T17:16:14.599Z,101952.66
2023-02-16T17:18:42.940Z,101953.81
2023-02-16T17:21:12.842Z,101952.97
2023-02-16T17:23:52.569Z,101948.63
2023-02-16T17:26:19.990Z,101948.81
2023-02-16T17:28:46.990Z,101948.00
2023-02-16T17:31:13.989Z,101947.16
2023-02-16T17:33:42.233Z,101936.50
2023-02-16T17:36:13.068Z,101935.34
2023-02-16T17:38:40.220Z,101937.34
2023-02-16T17:41:07.256Z,101935.34
2023-02-16T17:43:34.214Z,101925.72
2023-02-16T17:46:04.753Z,101933.69
2023-02-16T17:48:33.168Z,101935.34
2023-02-16T17:51:01.858Z,101934.53
2023-02-16T17:53:29.214Z,101923.91
2023-02-16T17:55:58.333Z,101923.06
2023-02-16T17:58:25.902Z,101928.53
2023-02-16T18:00:55.173Z,101917.06
2023-02-16T18:03:23.102Z,101917.22
2023-02-16T18:05:50.233Z,101914.56
2023-02-16T18:08:18.482Z,101910.38
2023-02-16T18:10:48.009Z,101905.06
2023-02-16T18:13:15.787Z,101912.22
2023-02-16T18:15:45.689Z,101906.91
2023-02-16T18:18:13.719Z,101905.91
2023-02-16T18:20:40.817Z,101908.56
2023-02-16T18:23:08.057Z,101906.06
2023-02-16T18:25:36.556Z,101911.53
2023-02-16T18:28:03.842Z,101910.56
2023-02-16T18:30:31.251Z,101909.72
2023-02-16T18:32:58.551Z,101909.72
2023-02-16T18:35:25.530Z,101919.53
2023-02-16T18:37:52.571Z,101908.88
2023-02-16T18:40:20.344Z,101899.91
2023-02-16T18:42:48.742Z,101899.09
2023-02-16T18:45:15.888Z,101899.25
2023-02-16T18:47:45.568Z,101895.75
2023-02-16T18:50:12.870Z,101895.75
2023-02-16T18:52:43.464Z,101897.41
2023-02-16T18:55:11.047Z,101897.25
2023-02-16T18:57:38.149Z,101899.91
2023-02-16T19:00:11.281Z,101909.56
2023-02-16T19:02:41.043Z,101911.41
2023-02-16T19:05:08.949Z,101903.56
2023-02-16T19:07:41.493Z,101919.53
2023-02-16T19:10:10.926Z,101917.84
2023-02-16T19:12:38.304Z,101909.72
2023-02-16T19:15:08.409Z,101913.22
2023-02-16T19:17:36.050Z,101909.72
2023-02-16T19:20:03.582Z,101900.75
2023-02-16T19:22:33.706Z,101903.56
2023-02-16T19:25:01.243Z,101914.06
2023-02-16T19:27:28.372Z,101915.19
2023-02-16T19:29:55.430Z,101920.50
2023-02-16T19:32:24.525Z,101909.88
2023-02-16T19:34:54.091Z,101919.38
2023-02-16T19:37:28.849Z,101913.22
2023-02-16T19:39:56.348Z,101908.88
2023-02-16T19:42:23.752Z,101919.53
2023-02-16T19:44:51.217Z,101904.72
2023-02-16T19:47:18.360Z,101908.88
2023-02-16T19:49:49.552Z,101903.56
2023-02-16T19:52:17.488Z,101904.41
2023-02-16T19:54:44.985Z,101902.56
2023-02-16T19:57:12.188Z,101898.25
2023-02-16T19:59:39.304Z,101901.06
2023-02-16T20:02:06.820Z,101898.25
2023-02-16T20:04:33.669Z,101901.06
2023-02-16T20:07:04.501Z,101893.91
2023-02-16T20:09:31.547Z,101898.41
2023-02-16T20:11:59.641Z,101897.56
2023-02-16T20:14:27.032Z,101896.72
2023-02-16T20:16:54.062Z,101893.75
2023-02-16T20:19:21.251Z,101891.09
2023-02-16T20:21:48.449Z,101896.44
2023-02-16T20:24:17.054Z,101890.13
2023-02-16T20:26:45.758Z,101890.97
2023-02-16T20:29:17.914Z,101895.25
2023-02-16T20:31:50.208Z,101895.09
2023-02-16T20:34:17.333Z,101889.09
2023-02-16T20:36:45.704Z,101890.97
2023-02-16T20:39:14.045Z,101891.94
2023-02-16T20:41:42.593Z,101887.63
2023-02-16T20:44:09.794Z,101889.94
2023-02-16T20:46:37.842Z,101877.66
2023-02-16T20:49:05.248Z,101881.97
2023-02-16T20:51:33.029Z,101884.47
2023-02-16T20:54:04.258Z,101889.09
2023-02-16T20:56:31.373Z,101890.13
2023-02-16T20:58:59.739Z,101883.97
2023-02-16T21:01:29.688Z,101884.63
2023-02-16T21:03:58.200Z,101874.81
2023-02-16T21:06:25.814Z,101873.00
2023-02-16T21:08:53.406Z,101870.03
2023-02-16T21:11:20.601Z,101872.69
2023-02-16T21:13:50.444Z,101875.66
2023-02-16T21:16:19.488Z,101880.13
2023-02-16T21:18:46.364Z,101870.34
2023-02-16T21:21:16.026Z,101867.53
2023-02-16T21:23:44.851Z,101871.00
2023-02-16T21:26:12.300Z,101868.19
2023-02-16T21:28:40.092Z,101862.88
2023-02-16T21:31:09.926Z,101868.19
2023-02-16T21:33:38.526Z,101869.34
2023-02-16T21:36:07.769Z,101859.38
2023-02-16T21:38:36.262Z,101864.03
2023-02-16T21:41:23.078Z,101866.53
2023-02-16T21:43:51.476Z,101860.38
2023-02-16T21:46:18.838Z,101860.22
2023-02-16T21:48:50.412Z,101867.22
2023-02-16T21:51:20.524Z,101865.38
2023-02-16T21:53:48.003Z,101859.03
2023-02-16T21:56:33.151Z,101851.06
2023-02-16T21:59:00.630Z,101844.91
2023-02-16T22:01:30.832Z,101845.75
2023-02-16T22:04:08.826Z,101832.44
2023-02-16T22:06:38.871Z,101836.94
2023-02-16T22:09:07.866Z,101829.16
2023-02-16T22:11:35.337Z,101824.66
2023-02-16T22:14:04.123Z,101828.16
2023-02-16T22:16:39.963Z,101829.63
2023-02-16T22:19:11.586Z,101829.63
2023-02-16T22:21:40.320Z,101829.47
2023-02-16T22:24:08.334Z,101823.31
2023-02-16T22:26:36.279Z,101829.47
2023-02-16T22:29:05.653Z,101828.66
2023-02-16T22:31:34.917Z,101823.19
2023-02-16T22:34:04.435Z,101839.13
2023-02-16T22:36:33.669Z,101837.16
2023-02-16T22:39:00.506Z,101836.13
2023-02-16T22:41:27.518Z,101842.28
2023-02-16T22:43:55.185Z,101852.78
2023-02-16T22:46:24.189Z,101834.16
2023-02-16T22:48:52.087Z,101846.47
2023-02-16T22:51:20.842Z,101840.31
2023-02-16T22:53:48.971Z,101840.16
2023-02-16T22:56:20.032Z,101829.50
2023-02-16T22:58:48.150Z,101840.00
2023-02-16T23:01:17.473Z,101838.16
2023-02-16T23:03:46.593Z,101841.63
2023-02-16T23:06:15.052Z,101831.81
2023-02-16T23:08:44.206Z,101836.31
2023-02-16T23:11:13.294Z,101834.34
2023-02-16T23:13:40.052Z,101843.16
2023-02-16T23:16:09.067Z,101833.50
2023-02-16T23:18:36.386Z,101821.88
2023-02-16T23:21:07.577Z,101833.34
2023-02-16T23:23:34.527Z,101834.19
2023-02-16T23:26:02.584Z,101832.34
2023-02-16T23:28:30.719Z,101836.84
2023-02-16T23:30:58.113Z,101841.16
2023-02-16T23:33:25.257Z,101841.16
2023-02-16T23:35:52.507Z,101835.84
2023-02-16T23:38:19.288Z,101827.88
2023-02-16T23:40:55.654Z,101818.06
2023-02-16T23:43:22.457Z,101823.53
2023-02-16T23:45:50.810Z,101826.19
2023-02-16T23:48:17.815Z,101824.38
2023-02-16T23:50:44.986Z,101820.56
2023-02-16T23:53:12.997Z,101818.91
2023-02-16T23:55:41.188Z,101817.06
2023-02-16T23:58:08.132Z,101824.22
